Time;durP1;ratioP1;P1;durP2;ratioP2;P2;SDS_P1;SDS_P2;PMS_P1;PMS_P2;Temp;Humidity;BMP_temperature;BMP_pressure;BME280_temperature;BME280_humidity;BME280_pressure;Samples;Min_cycle;Max_cycle;Signal;HPM_P1;HPM_P2
2024/01/20 00:00:25;;;;;;;0.00;0.00;;;;;;;;;;4966080;28;20448;-83
2024/01/20 00:02:51;;;;;;;0.00;0.00;;;;;;;;;;4981700;28;20148;-83
2024/01/20 00:05:16;;;;;;;0.00;0.00;;;;;;;;;;4981753;28;20025;-83
2024/01/20 00:07:42;;;;;;;0.00;0.00;;;;;;;;;;4996839;28;20065;-82
2024/01/20 00:10:10;;;;;;;0.00;0.00;;;;;;;;;;4981717;28;20490;-83
2024/01/20 00:12:39;;;;;;;0.00;0.00;;;;;;;;;;5015656;28;20026;-82
2024/01/20 00:15:08;;;;;;;0.00;0.00;;;;;;;;;;4982078;28;20034;-83
2024/01/20 00:17:35;;;;;;;0.00;0.00;;;;;;;;;;5014341;28;20037;-82
2024/01/20 00:20:01;;;;;;;0.00;0.00;;;;;;;;;;4982309;28;20064;-84
2024/01/20 00:22:26;;;;;;;0.00;0.00;;;;;;;;;;5014335;28;20076;-84
2024/01/20 00:24:52;;;;;;;0.00;0.00;;;;;;;;;;5035036;28;20033;-84
2024/01/20 00:27:17;;;;;;;0.00;0.00;;;;;;;;;;5035268;28;20029;-84
2024/01/20 00:29:43;;;;;;;0.00;0.00;;;;;;;;;;5016904;28;20033;-85
2024/01/20 00:32:08;;;;;;;0.00;0.00;;;;;;;;;;5033579;28;20025;-85
2024/01/20 00:34:34;;;;;;;0.00;0.00;;;;;;;;;;5015746;28;20373;-85
2024/01/20 00:37:03;;;;;;;0.00;0.00;;;;;;;;;;5015757;28;20049;-84
2024/01/20 00:39:28;;;;;;;0.00;0.00;;;;;;;;;;4986245;28;20343;-82
2024/01/20 00:41:54;;;;;;;0.00;0.00;;;;;;;;;;5033929;28;20120;-84
2024/01/20 00:44:19;;;;;;;0.00;0.00;;;;;;;;;;5034719;28;20048;-84
2024/01/20 00:46:45;;;;;;;0.00;0.00;;;;;;;;;;5017181;28;20073;-84
2024/01/20 00:49:10;;;;;;;0.00;0.00;;;;;;;;;;5000926;28;20450;-85
2024/01/20 00:51:36;;;;;;;0.00;0.00;;;;;;;;;;5016761;28;20037;-83
2024/01/20 00:54:01;;;;;;;0.00;0.00;;;;;;;;;;5000758;28;20037;-84
2024/01/20 00:56:27;;;;;;;0.00;0.00;;;;;;;;;;5032954;28;20035;-83
2024/01/20 00:58:52;;;;;;;0.00;0.00;;;;;;;;;;5016357;28;20052;-83
2024/01/20 01:01:18;;;;;;;0.00;0.00;;;;;;;;;;5000504;28;20029;-83
2024/01/20 01:03:44;;;;;;;0.00;0.00;;;;;;;;;;5000222;28;20461;-83
2024/01/20 01:06:09;;;;;;;0.00;0.00;;;;;;;;;;5034225;28;20435;-84
2024/01/20 01:08:35;;;;;;;0.00;0.00;;;;;;;;;;5034195;28;20041;-85
2024/01/20 01:11:00;;;;;;;0.00;0.00;;;;;;;;;;5000173;28;20036;-85
2024/01/20 01:13:26;;;;;;;0.00;0.00;;;;;;;;;;4983808;28;20390;-84
2024/01/20 01:15:51;;;;;;;0.00;0.00;;;;;;;;;;4983862;28;20045;-84
2024/01/20 01:18:18;;;;;;;0.00;0.00;;;;;;;;;;5016136;28;20338;-83
2024/01/20 01:20:43;;;;;;;0.00;0.00;;;;;;;;;;5016206;28;20072;-85
2024/01/20 01:23:09;;;;;;;0.00;0.00;;;;;;;;;;5032853;28;20056;-84
2024/01/20 01:25:34;;;;;;;0.00;0.00;;;;;;;;;;5016201;28;20116;-85
2024/01/20 01:28:00;;;;;;;0.00;0.00;;;;;;;;;;5049392;28;20041;-83
2024/01/20 01:30:25;;;;;;;0.00;0.00;;;;;;;;;;5034298;28;20060;-85
2024/01/20 01:32:51;;;;;;;0.00;0.00;;;;;;;;;;5016264;28;20462;-85
2024/01/20 01:35:16;;;;;;;0.00;0.00;;;;;;;;;;5016180;28;20033;-84
2024/01/20 01:37:42;;;;;;;0.00;0.00;;;;;;;;;;5016614;28;20095;-83
2024/01/20 01:40:08;;;;;;;0.00;0.00;;;;;;;;;;5016632;28;20029;-84
2024/01/20 01:42:34;;;;;;;0.00;0.00;;;;;;;;;;5033041;28;20422;-84
2024/01/20 01:44:59;;;;;;;0.00;0.00;;;;;;;;;;5033850;28;20402;-84
2024/01/20 01:47:25;;;;;;;0.00;0.00;;;;;;;;;;5034029;28;20386;-84
2024/01/20 01:49:50;;;;;;;0.00;0.00;;;;;;;;;;5016358;28;20033;-84
2024/01/20 01:52:16;;;;;;;0.00;0.00;;;;;;;;;;5016471;28;20098;-84
2024/01/20 01:54:41;;;;;;;0.00;0.00;;;;;;;;;;4999624;28;20041;-84
2024/01/20 01:57:07;;;;;;;0.00;0.00;;;;;;;;;;5008965;28;20040;-84
2024/01/20 01:59:33;;;;;;;0.00;0.00;;;;;;;;;;5015273;28;20041;-83
2024/01/20 02:01:58;;;;;;;0.00;0.00;;;;;;;;;;5032836;28;20030;-84
2024/01/20 02:04:24;;;;;;;0.00;0.00;;;;;;;;;;5033044;28;20033;-84
2024/01/20 02:06:49;;;;;;;0.00;0.00;;;;;;;;;;4999407;28;20179;-84
2024/01/20 02:09:16;;;;;;;0.00;0.00;;;;;;;;;;4999549;28;20040;-84
2024/01/20 02:11:41;;;;;;;0.00;0.00;;;;;;;;;;4983137;28;20026;-85
2024/01/20 02:14:07;;;;;;;0.00;0.00;;;;;;;;;;4999348;28;20124;-83
2024/01/20 02:16:32;;;;;;;0.00;0.00;;;;;;;;;;5032746;28;20026;-84
2024/01/20 02:19:03;;;;;;;0.00;0.00;;;;;;;;;;5032822;28;20080;-84
2024/01/20 02:21:29;;;;;;;0.00;0.00;;;;;;;;;;4999343;28;20037;-84
2024/01/20 02:23:55;;;;;;;0.00;0.00;;;;;;;;;;4982957;28;20030;-84
2024/01/20 02:26:20;;;;;;;0.00;0.00;;;;;;;;;;5009704;28;20068;-84
2024/01/20 02:28:45;;;;;;;0.00;0.00;;;;;;;;;;5013860;28;20028;-84
2024/01/20 02:31:11;;;;;;;0.00;0.00;;;;;;;;;;5017492;28;20363;-84
2024/01/20 02:33:36;;;;;;;0.00;0.00;;;;;;;;;;5036761;28;20079;-84
2024/01/20 02:36:02;;;;;;;0.00;0.00;;;;;;;;;;5019441;28;20099;-83
2024/01/20 02:38:28;;;;;;;0.00;0.00;;;;;;;;;;5036617;28;20092;-84
2024/01/20 02:40:53;;;;;;;0.00;0.00;;;;;;;;;;5019313;28;20033;-84
2024/01/20 02:43:19;;;;;;;0.00;0.00;;;;;;;;;;5019347;28;20040;-84
2024/01/20 02:45:44;;;;;;;0.00;0.00;;;;;;;;;;5002869;28;20056;-84
2024/01/20 02:48:10;;;;;;;0.00;0.00;;;;;;;;;;5038849;28;20047;-84
2024/01/20 02:50:35;;;;;;;0.00;0.00;;;;;;;;;;5025967;28;20052;-84
2024/01/20 02:53:01;;;;;;;0.00;0.00;;;;;;;;;;5019115;28;20040;-84
2024/01/20 02:55:26;;;;;;;0.00;0.00;;;;;;;;;;5018903;28;20466;-83
2024/01/20 02:57:52;;;;;;;0.00;0.00;;;;;;;;;;5018730;28;20033;-84
2024/01/20 03:00:17;;;;;;;0.00;0.00;;;;;;;;;;5036659;28;20029;-84
2024/01/20 03:02:43;;;;;;;0.00;0.00;;;;;;;;;;5035957;28;20029;-83
2024/01/20 03:05:08;;;;;;;0.00;0.00;;;;;;;;;;5018479;28;20124;-83
2024/01/20 03:07:34;;;;;;;0.00;0.00;;;;;;;;;;5036739;28;20076;-83
2024/01/20 03:09:59;;;;;;;0.00;0.00;;;;;;;;;;5019107;28;20037;-83
2024/01/20 03:12:25;;;;;;;0.00;0.00;;;;;;;;;;5018926;28;20091;-83
2024/01/20 03:14:50;;;;;;;0.00;0.00;;;;;;;;;;5036565;28;20036;-84
2024/01/20 03:17:16;;;;;;;0.00;0.00;;;;;;;;;;5018678;28;20025;-84
2024/01/20 03:19:41;;;;;;;0.00;0.00;;;;;;;;;;5002387;28;20041;-84
2024/01/20 03:22:07;;;;;;;0.00;0.00;;;;;;;;;;5002514;28;20037;-83
2024/01/20 03:24:32;;;;;;;0.00;0.00;;;;;;;;;;5018721;28;20079;-84
2024/01/20 03:26:58;;;;;;;0.00;0.00;;;;;;;;;;5013260;28;20375;-83
2024/01/20 03:29:23;;;;;;;0.00;0.00;;;;;;;;;;4982287;28;20034;-83
2024/01/20 03:31:49;;;;;;;0.00;0.00;;;;;;;;;;5016257;28;20033;-82
2024/01/20 03:34:15;;;;;;;0.00;0.00;;;;;;;;;;4982694;28;20448;-83
2024/01/20 03:36:41;;;;;;;0.00;0.00;;;;;;;;;;4982547;28;20045;-82
2024/01/20 03:39:06;;;;;;;0.00;0.00;;;;;;;;;;4982618;28;20095;-83
2024/01/20 03:41:32;;;;;;;0.00;0.00;;;;;;;;;;4998640;28;20033;-82
2024/01/20 03:43:57;;;;;;;0.00;0.00;;;;;;;;;;4998654;28;20394;-84
2024/01/20 03:46:23;;;;;;;0.00;0.00;;;;;;;;;;5010974;28;20032;-82
2024/01/20 03:48:49;;;;;;;0.00;0.00;;;;;;;;;;5055878;28;20037;-82
2024/01/20 03:51:14;;;;;;;0.00;0.00;;;;;;;;;;5037930;28;20476;-83
2024/01/20 03:53:40;;;;;;;0.00;0.00;;;;;;;;;;5037914;28;20434;-83
2024/01/20 03:56:05;;;;;;;0.00;0.00;;;;;;;;;;5037921;28;20195;-83
2024/01/20 03:58:31;;;;;;;0.00;0.00;;;;;;;;;;5028639;28;20470;-83
2024/01/20 04:00:56;;;;;;;0.00;0.00;;;;;;;;;;5035216;28;20025;-83
2024/01/20 04:03:22;;;;;;;0.00;0.00;;;;;;;;;;5017805;28;20029;-83
2024/01/20 04:05:48;;;;;;;0.00;0.00;;;;;;;;;;5001406;28;20125;-83
2024/01/20 04:08:14;;;;;;;0.00;0.00;;;;;;;;;;5035251;28;20052;-84
2024/01/20 04:10:39;;;;;;;0.00;0.00;;;;;;;;;;5017754;28;20033;-83
2024/01/20 04:13:05;;;;;;;0.00;0.00;;;;;;;;;;5035285;28;20029;-83
2024/01/20 04:15:30;;;;;;;0.00;0.00;;;;;;;;;;5035660;28;20056;-84
2024/01/20 04:17:56;;;;;;;0.00;0.00;;;;;;;;;;5017937;28;20084;-84
2024/01/20 04:20:21;;;;;;;0.00;0.00;;;;;;;;;;5035172;28;20032;-83
2024/01/20 04:22:47;;;;;;;0.00;0.00;;;;;;;;;;5035193;28;20025;-83
2024/01/20 04:25:13;;;;;;;0.00;0.00;;;;;;;;;;5017487;28;20040;-83
2024/01/20 04:27:41;;;;;;;0.00;0.00;;;;;;;;;;4985402;28;20029;-83
2024/01/20 04:30:10;;;;;;;0.00;0.00;;;;;;;;;;5015287;28;20034;-83
2024/01/20 04:32:36;;;;;;;0.00;0.00;;;;;;;;;;5034939;28;20029;-83
2024/01/20 04:35:05;;;;;;;0.00;0.00;;;;;;;;;;5035137;28;20029;-83
2024/01/20 04:37:31;;;;;;;0.00;0.00;;;;;;;;;;5034662;28;20041;-83
2024/01/20 04:39:56;;;;;;;0.00;0.00;;;;;;;;;;5015815;28;20037;-83
2024/01/20 04:42:22;;;;;;;0.00;0.00;;;;;;;;;;5033311;28;20052;-83
2024/01/20 04:44:48;;;;;;;0.00;0.00;;;;;;;;;;4998932;28;20033;-83
2024/01/20 04:47:13;;;;;;;0.00;0.00;;;;;;;;;;4984340;28;20037;-83
2024/01/20 04:49:39;;;;;;;0.00;0.00;;;;;;;;;;5017372;28;20028;-84
2024/01/20 04:52:05;;;;;;;0.00;0.00;;;;;;;;;;5016992;28;20434;-83
2024/01/20 04:54:30;;;;;;;0.00;0.00;;;;;;;;;;5032967;28;21078;-84
2024/01/20 04:56:57;;;;;;;0.00;0.00;;;;;;;;;;5034755;28;20087;-83
2024/01/20 04:59:22;;;;;;;0.00;0.00;;;;;;;;;;5003288;28;20061;-83
2024/01/20 05:01:48;;;;;;;0.00;0.00;;;;;;;;;;5007962;28;20464;-83
2024/01/20 05:04:14;;;;;;;0.00;0.00;;;;;;;;;;5013352;28;20026;-83
2024/01/20 05:06:39;;;;;;;0.00;0.00;;;;;;;;;;4981495;28;20030;-83
2024/01/20 05:09:05;;;;;;;0.00;0.00;;;;;;;;;;5014220;28;20084;-83
2024/01/20 05:11:31;;;;;;;0.00;0.00;;;;;;;;;;5013632;28;20030;-84
2024/01/20 05:13:56;;;;;;;0.00;0.00;;;;;;;;;;4996953;28;20124;-83
2024/01/20 05:16:22;;;;;;;0.00;0.00;;;;;;;;;;5013227;28;20108;-83
2024/01/20 05:18:48;;;;;;;0.00;0.00;;;;;;;;;;5014242;28;20038;-83
2024/01/20 05:21:14;;;;;;;0.00;0.00;;;;;;;;;;5014205;28;20040;-83
2024/01/20 05:23:40;;;;;;;0.00;0.00;;;;;;;;;;5013070;28;20154;-84
2024/01/20 05:26:06;;;;;;;0.00;0.00;;;;;;;;;;4996967;28;20455;-83
2024/01/20 05:28:31;;;;;;;0.00;0.00;;;;;;;;;;4980407;28;20040;-83
2024/01/20 05:30:57;;;;;;;0.00;0.00;;;;;;;;;;5007881;28;20358;-84
2024/01/20 05:33:22;;;;;;;0.00;0.00;;;;;;;;;;4994807;28;20140;-83
2024/01/20 05:35:48;;;;;;;0.00;0.00;;;;;;;;;;4993343;28;20037;-84
2024/01/20 05:38:14;;;;;;;0.00;0.00;;;;;;;;;;4994698;28;20061;-83
2024/01/20 05:40:40;;;;;;;0.00;0.00;;;;;;;;;;4993407;28;20089;-84
2024/01/20 05:43:06;;;;;;;0.00;0.00;;;;;;;;;;4994634;28;20467;-84
2024/01/20 05:45:32;;;;;;;0.00;0.00;;;;;;;;;;4977446;28;20034;-84
2024/01/20 05:47:57;;;;;;;0.00;0.00;;;;;;;;;;4993248;28;20030;-83
2024/01/20 05:50:23;;;;;;;0.00;0.00;;;;;;;;;;4991408;28;20080;-83
2024/01/20 05:52:49;;;;;;;0.00;0.00;;;;;;;;;;5016402;28;20083;-83
2024/01/20 05:55:15;;;;;;;0.00;0.00;;;;;;;;;;5016519;28;20033;-83
2024/01/20 05:57:40;;;;;;;0.00;0.00;;;;;;;;;;5015821;28;20123;-83
2024/01/20 06:00:06;;;;;;;0.00;0.00;;;;;;;;;;5015970;28;20116;-83
2024/01/20 06:02:32;;;;;;;0.00;0.00;;;;;;;;;;5002820;28;20089;-83
2024/01/20 06:04:57;;;;;;;0.00;0.00;;;;;;;;;;4995013;28;20037;-84
2024/01/20 06:07:23;;;;;;;0.00;0.00;;;;;;;;;;4996124;28;20100;-83
2024/01/20 06:09:48;;;;;;;0.00;0.00;;;;;;;;;;5012049;28;20490;-83
2024/01/20 06:12:14;;;;;;;0.00;0.00;;;;;;;;;;4995924;28;20029;-84
2024/01/20 06:14:40;;;;;;;0.00;0.00;;;;;;;;;;5013533;28;20040;-83
2024/01/20 06:17:05;;;;;;;0.00;0.00;;;;;;;;;;4979617;28;20034;-83
2024/01/20 06:19:31;;;;;;;0.00;0.00;;;;;;;;;;4992453;28;20042;-83
2024/01/20 06:21:56;;;;;;;0.00;0.00;;;;;;;;;;4992674;28;20035;-82
2024/01/20 06:24:22;;;;;;;0.00;0.00;;;;;;;;;;4976258;28;20038;-84
2024/01/20 06:26:47;;;;;;;0.00;0.00;;;;;;;;;;4992440;28;20054;-84
2024/01/20 06:29:13;;;;;;;0.00;0.00;;;;;;;;;;4976450;28;20034;-84
2024/01/20 06:31:39;;;;;;;0.00;0.00;;;;;;;;;;4993810;28;20455;-84
2024/01/20 06:34:04;;;;;;;0.00;0.00;;;;;;;;;;4976826;28;20034;-84
2024/01/20 06:36:30;;;;;;;0.00;0.00;;;;;;;;;;4992545;28;20027;-84
2024/01/20 06:38:55;;;;;;;0.00;0.00;;;;;;;;;;4976034;28;20053;-84
2024/01/20 06:41:21;;;;;;;0.00;0.00;;;;;;;;;;4992625;28;20468;-84
2024/01/20 06:43:46;;;;;;;0.00;0.00;;;;;;;;;;4992420;28;20297;-84
2024/01/20 06:46:12;;;;;;;0.00;0.00;;;;;;;;;;4992578;28;20088;-83
2024/01/20 06:48:37;;;;;;;0.00;0.00;;;;;;;;;;5008738;28;20038;-84
2024/01/20 06:51:03;;;;;;;0.00;0.00;;;;;;;;;;5004650;28;20050;-83
2024/01/20 06:53:29;;;;;;;0.00;0.00;;;;;;;;;;5015096;28;20044;-83
2024/01/20 06:55:55;;;;;;;0.00;0.00;;;;;;;;;;4986277;28;20030;-83
2024/01/20 06:58:21;;;;;;;0.00;0.00;;;;;;;;;;4995901;28;20374;-84
2024/01/20 07:00:46;;;;;;;0.00;0.00;;;;;;;;;;4995545;28;20026;-83
2024/01/20 07:03:12;;;;;;;0.00;0.00;;;;;;;;;;4980214;28;20446;-83
2024/01/20 07:05:38;;;;;;;0.00;0.00;;;;;;;;;;4985036;28;20033;-83
2024/01/20 07:08:04;;;;;;;0.00;0.00;;;;;;;;;;5026012;28;20036;-84
2024/01/20 07:10:30;;;;;;;0.00;0.00;;;;;;;;;;5020634;28;20028;-84
2024/01/20 07:12:55;;;;;;;0.00;0.00;;;;;;;;;;5017840;28;20021;-85
2024/01/20 07:15:21;;;;;;;0.00;0.00;;;;;;;;;;5018481;28;20025;-84
2024/01/20 07:17:47;;;;;;;0.00;0.00;;;;;;;;;;5055887;28;20060;-85
2024/01/20 07:20:13;;;;;;;0.00;0.00;;;;;;;;;;5056974;28;20029;-85
2024/01/20 07:22:38;;;;;;;0.00;0.00;;;;;;;;;;5021896;28;20332;-85
2024/01/20 07:25:04;;;;;;;0.00;0.00;;;;;;;;;;4995410;28;20386;-85
2024/01/20 07:27:30;;;;;;;0.00;0.00;;;;;;;;;;5015369;28;20084;-85
2024/01/20 07:29:56;;;;;;;0.00;0.00;;;;;;;;;;4997701;28;20041;-86
2024/01/20 07:32:21;;;;;;;0.00;0.00;;;;;;;;;;4997393;28;20037;-86
2024/01/20 07:34:47;;;;;;;0.00;0.00;;;;;;;;;;5013905;28;20115;-84
2024/01/20 07:37:12;;;;;;;0.00;0.00;;;;;;;;;;5014177;28;20026;-85
2024/01/20 07:39:38;;;;;;;0.00;0.00;;;;;;;;;;5015710;28;20122;-85
2024/01/20 07:42:03;;;;;;;0.00;0.00;;;;;;;;;;4998913;28;20129;-85
2024/01/20 07:44:29;;;;;;;0.00;0.00;;;;;;;;;;5016180;28;20064;-85
2024/01/20 07:46:56;;;;;;;0.00;0.00;;;;;;;;;;5016509;28;20139;-85
2024/01/20 07:49:22;;;;;;;0.00;0.00;;;;;;;;;;4998898;28;20426;-85
2024/01/20 07:51:47;;;;;;;0.00;0.00;;;;;;;;;;5015821;28;20045;-85
2024/01/20 07:54:13;;;;;;;0.00;0.00;;;;;;;;;;5005209;28;20477;-86
2024/01/20 07:56:39;;;;;;;0.00;0.00;;;;;;;;;;5018322;28;20029;-85
2024/01/20 07:59:04;;;;;;;0.00;0.00;;;;;;;;;;5018482;28;20082;-85
2024/01/20 08:01:30;;;;;;;0.00;0.00;;;;;;;;;;5018351;28;20025;-84
2024/01/20 08:03:55;;;;;;;0.00;0.00;;;;;;;;;;5018253;28;20403;-84
2024/01/20 08:06:21;;;;;;;0.00;0.00;;;;;;;;;;5029479;28;20029;-86
2024/01/20 08:08:47;;;;;;;0.00;0.00;;;;;;;;;;5034974;28;20037;-84
2024/01/20 08:11:12;;;;;;;0.00;0.00;;;;;;;;;;5017662;28;20036;-85
2024/01/20 08:13:38;;;;;;;0.00;0.00;;;;;;;;;;5017478;28;20132;-85
2024/01/20 08:16:04;;;;;;;0.00;0.00;;;;;;;;;;5017735;28;20033;-85
2024/01/20 08:18:30;;;;;;;0.00;0.00;;;;;;;;;;5001140;28;20034;-85
2024/01/20 08:20:55;;;;;;;0.00;0.00;;;;;;;;;;5001084;28;20039;-85
2024/01/20 08:23:21;;;;;;;0.00;0.00;;;;;;;;;;5035471;28;20029;-85
2024/01/20 08:25:46;;;;;;;0.00;0.00;;;;;;;;;;5017734;28;20048;-83
2024/01/20 08:28:12;;;;;;;0.00;0.00;;;;;;;;;;5034250;28;20067;-86
2024/01/20 08:30:37;;;;;;;0.00;0.00;;;;;;;;;;5035088;28;20026;-88
2024/01/20 08:33:03;;;;;;;0.00;0.00;;;;;;;;;;5017409;28;20319;-89
2024/01/20 08:35:29;;;;;;;0.00;0.00;;;;;;;;;;4997642;28;20128;-90
2024/01/20 08:37:55;;;;;;;0.00;0.00;;;;;;;;;;4983748;28;20030;-88
2024/01/20 08:40:20;;;;;;;0.00;0.00;;;;;;;;;;5016354;28;20143;-88
2024/01/20 08:42:46;;;;;;;0.00;0.00;;;;;;;;;;5017309;28;20040;-88
2024/01/20 08:45:11;;;;;;;0.00;0.00;;;;;;;;;;5034595;28;20049;-88
2024/01/20 08:47:37;;;;;;;0.00;0.00;;;;;;;;;;5000164;28;20112;-89
2024/01/20 08:50:03;;;;;;;0.00;0.00;;;;;;;;;;5033334;28;20041;-89
2024/01/20 08:52:29;;;;;;;0.00;0.00;;;;;;;;;;4999905;28;20482;-88
2024/01/20 08:54:55;;;;;;;0.00;0.00;;;;;;;;;;4999486;28;20029;-87
2024/01/20 08:57:21;;;;;;;0.00;0.00;;;;;;;;;;5011651;28;20063;-86
2024/01/20 08:59:47;;;;;;;0.00;0.00;;;;;;;;;;5000729;28;20037;-89
2024/01/20 09:02:12;;;;;;;0.00;0.00;;;;;;;;;;5017448;28;20455;-88
2024/01/20 09:04:38;;;;;;;0.00;0.00;;;;;;;;;;4984882;28;20029;-88
2024/01/20 09:07:03;;;;;;;0.00;0.00;;;;;;;;;;5000862;28;20061;-85
2024/01/20 09:09:29;;;;;;;0.00;0.00;;;;;;;;;;5016670;28;20128;-87
2024/01/20 09:11:54;;;;;;;0.00;0.00;;;;;;;;;;4999472;28;20041;-86
2024/01/20 09:14:20;;;;;;;0.00;0.00;;;;;;;;;;4983061;28;20034;-86
2024/01/20 09:16:45;;;;;;;0.00;0.00;;;;;;;;;;4999803;28;20037;-87
2024/01/20 09:19:11;;;;;;;0.00;0.00;;;;;;;;;;5016070;28;20033;-87
2024/01/20 09:21:36;;;;;;;0.00;0.00;;;;;;;;;;5015995;28;20371;-86
2024/01/20 09:24:02;;;;;;;0.00;0.00;;;;;;;;;;5001672;28;20025;-89
2024/01/20 09:26:28;;;;;;;0.00;0.00;;;;;;;;;;4985797;28;20067;-89
2024/01/20 09:28:53;;;;;;;0.00;0.00;;;;;;;;;;4985339;28;20038;-87
2024/01/20 09:31:19;;;;;;;0.00;0.00;;;;;;;;;;5021402;28;20029;-90
2024/01/20 09:33:46;;;;;;;0.00;0.00;;;;;;;;;;5007741;28;20428;-87
2024/01/20 09:36:12;;;;;;;0.00;0.00;;;;;;;;;;5021970;28;20025;-86
2024/01/20 09:38:37;;;;;;;0.00;0.00;;;;;;;;;;5001676;28;20037;-87
2024/01/20 09:41:09;;;;;;;0.00;0.00;;;;;;;;;;5018330;28;20009;-89
2024/01/20 09:43:37;;;;;;;0.00;0.00;;;;;;;;;;5023014;28;20026;-87
2024/01/20 09:46:02;;;;;;;0.00;0.00;;;;;;;;;;5045954;28;20052;-93
2024/01/20 09:48:28;;;;;;;0.00;0.00;;;;;;;;;;5028513;28;20029;-90
2024/01/20 09:50:54;;;;;;;0.00;0.00;;;;;;;;;;4997783;28;20109;-92
2024/01/20 09:53:19;;;;;;;0.00;0.00;;;;;;;;;;5008767;28;20017;-91
2024/01/20 09:55:45;;;;;;;0.00;0.00;;;;;;;;;;5020073;28;20036;-92
2024/01/20 09:58:15;;;;;;;0.00;0.00;;;;;;;;;;5015690;28;20051;-90
2024/01/20 10:00:41;;;;;;;0.00;0.00;;;;;;;;;;5034496;28;20025;-89
2024/01/20 10:03:08;;;;;;;0.00;0.00;;;;;;;;;;5018080;28;20037;-90
2024/01/20 10:05:33;;;;;;;0.00;0.00;;;;;;;;;;5004681;28;20025;-89
2024/01/20 10:08:00;;;;;;;0.00;0.00;;;;;;;;;;5018549;28;20097;-92
2024/01/20 10:10:25;;;;;;;0.00;0.00;;;;;;;;;;5019273;28;20017;-88
2024/01/20 10:12:51;;;;;;;0.00;0.00;;;;;;;;;;5001670;28;20048;-90
2024/01/20 10:15:25;;;;;;;0.00;0.00;;;;;;;;;;4999951;28;20029;-87
2024/01/20 10:17:53;;;;;;;0.00;0.00;;;;;;;;;;5032321;28;20095;-91
2024/01/20 10:20:31;;;;;;;0.00;0.00;;;;;;;;;;5009941;28;20033;-92
2024/01/20 10:22:59;;;;;;;0.00;0.00;;;;;;;;;;5021396;28;20029;-90
2024/01/20 10:25:25;;;;;;;0.00;0.00;;;;;;;;;;5023477;28;20022;-89
2024/01/20 10:27:51;;;;;;;0.00;0.00;;;;;;;;;;5000121;28;20014;-86
2024/01/20 10:30:17;;;;;;;0.00;0.00;;;;;;;;;;5000729;28;20026;-90
2024/01/20 10:32:44;;;;;;;0.00;0.00;;;;;;;;;;5000183;28;20037;-88
2024/01/20 10:35:10;;;;;;;0.00;0.00;;;;;;;;;;5000127;28;20033;-87
2024/01/20 10:37:40;;;;;;;0.00;0.00;;;;;;;;;;4992611;28;20026;-91
2024/01/20 10:40:13;;;;;;;0.00;0.00;;;;;;;;;;5013314;28;20370;-89
2024/01/20 10:42:46;;;;;;;0.00;0.00;;;;;;;;;;5016790;28;20060;-87
2024/01/20 10:45:17;;;;;;;0.00;0.00;;;;;;;;;;5016869;28;20029;-88
2024/01/20 10:47:57;;;;;;;0.00;0.00;;;;;;;;;;5001381;28;20030;-88
2024/01/20 10:50:24;;;;;;;0.00;0.00;;;;;;;;;;5019834;28;20063;-89
2024/01/20 10:52:49;;;;;;;0.00;0.00;;;;;;;;;;5021442;28;20135;-92
2024/01/20 10:55:15;;;;;;;0.00;0.00;;;;;;;;;;5008489;28;20033;-92
2024/01/20 10:57:41;;;;;;;0.00;0.00;;;;;;;;;;4989193;28;20030;-89
2024/01/20 11:00:16;;;;;;;0.00;0.00;;;;;;;;;;4987984;28;20029;-91
2024/01/20 11:02:41;;;;;;;0.00;0.00;;;;;;;;;;4988647;28;20061;-91
2024/01/20 11:05:36;;;;;;;0.00;0.00;;;;;;;;;;4989408;28;20033;-89
2024/01/20 11:08:06;;;;;;;0.00;0.00;;;;;;;;;;4983063;28;20132;-90
2024/01/20 11:10:42;;;;;;;0.00;0.00;;;;;;;;;;5004907;28;20362;-91
2024/01/20 11:13:11;;;;;;;0.00;0.00;;;;;;;;;;5022197;28;20057;-90
2024/01/20 11:15:38;;;;;;;0.00;0.00;;;;;;;;;;5020330;28;20474;-88
2024/01/20 11:18:21;;;;;;;0.00;0.00;;;;;;;;;;5021550;28;20207;-93
2024/01/20 11:21:16;;;;;;;0.00;0.00;;;;;;;;;;5005780;28;20073;-89
2024/01/20 11:23:58;;;;;;;0.00;0.00;;;;;;;;;;5022634;28;20117;-90
2024/01/20 11:26:36;;;;;;;0.00;0.00;;;;;;;;;;4991383;28;20056;-91
2024/01/20 11:29:04;;;;;;;0.00;0.00;;;;;;;;;;4991205;28;20030;-91
2024/01/20 11:31:33;;;;;;;0.00;0.00;;;;;;;;;;5000060;28;20036;-90
2024/01/20 11:34:02;;;;;;;0.00;0.00;;;;;;;;;;4973019;28;20032;-90
2024/01/20 11:36:29;;;;;;;0.00;0.00;;;;;;;;;;4968773;28;20122;-88
2024/01/20 11:38:56;;;;;;;0.00;0.00;;;;;;;;;;4998446;28;20096;-89
2024/01/20 11:41:21;;;;;;;0.00;0.00;;;;;;;;;;4977125;28;20037;-89
2024/01/20 11:43:47;;;;;;;0.00;0.00;;;;;;;;;;5036112;28;20025;-89
2024/01/20 11:46:12;;;;;;;0.00;0.00;;;;;;;;;;4983858;28;20036;-90
2024/01/20 11:48:38;;;;;;;0.00;0.00;;;;;;;;;;4985364;28;20371;-91
2024/01/20 11:51:04;;;;;;;0.00;0.00;;;;;;;;;;4967125;28;20049;-89
2024/01/20 11:53:30;;;;;;;0.00;0.00;;;;;;;;;;4983445;28;20087;-91
2024/01/20 11:55:58;;;;;;;0.00;0.00;;;;;;;;;;4983599;28;20037;-88
2024/01/20 11:58:23;;;;;;;0.00;0.00;;;;;;;;;;4968731;28;20034;-90
2024/01/20 12:00:53;;;;;;;0.00;0.00;;;;;;;;;;4999707;28;20033;-91
2024/01/20 12:03:19;;;;;;;0.00;0.00;;;;;;;;;;4981671;28;20061;-91
2024/01/20 12:05:44;;;;;;;0.00;0.00;;;;;;;;;;4999189;28;20030;-88
2024/01/20 12:08:10;;;;;;;0.00;0.00;;;;;;;;;;4998975;28;20079;-90
2024/01/20 12:10:36;;;;;;;0.00;0.00;;;;;;;;;;4966888;28;20037;-90
2024/01/20 12:13:04;;;;;;;0.00;0.00;;;;;;;;;;4999374;28;20030;-91
2024/01/20 12:15:36;;;;;;;0.00;0.00;;;;;;;;;;4999704;28;20460;-87
2024/01/20 12:18:02;;;;;;;0.00;0.00;;;;;;;;;;4999025;28;20348;-87
2024/01/20 12:20:27;;;;;;;0.00;0.00;;;;;;;;;;4998644;28;20026;-88
2024/01/20 12:22:59;;;;;;;0.00;0.00;;;;;;;;;;4982425;28;20030;-89
2024/01/20 12:25:28;;;;;;;0.00;0.00;;;;;;;;;;4967832;28;20033;-93
2024/01/20 12:27:54;;;;;;;0.00;0.00;;;;;;;;;;4982848;28;20357;-92
2024/01/20 12:30:20;;;;;;;0.00;0.00;;;;;;;;;;4968160;28;20161;-89
2024/01/20 12:32:45;;;;;;;0.00;0.00;;;;;;;;;;4999259;28;20060;-88
2024/01/20 12:35:11;;;;;;;0.00;0.00;;;;;;;;;;4998875;28;20029;-89
2024/01/20 12:37:36;;;;;;;0.00;0.00;;;;;;;;;;4982374;28;20129;-88
2024/01/20 12:40:05;;;;;;;0.00;0.00;;;;;;;;;;4998430;28;20040;-89
2024/01/20 12:42:31;;;;;;;0.00;0.00;;;;;;;;;;4985381;28;20049;-87
2024/01/20 12:44:57;;;;;;;0.00;0.00;;;;;;;;;;5016098;28;20091;-88
2024/01/20 12:47:22;;;;;;;0.00;0.00;;;;;;;;;;4995692;28;20456;-90
2024/01/20 12:49:49;;;;;;;0.00;0.00;;;;;;;;;;4997072;28;20112;-86
2024/01/20 12:52:15;;;;;;;0.00;0.00;;;;;;;;;;5014976;28;20034;-87
2024/01/20 12:54:41;;;;;;;0.00;0.00;;;;;;;;;;4997886;28;20037;-88
2024/01/20 12:57:06;;;;;;;0.00;0.00;;;;;;;;;;4997439;28;20120;-88
2024/01/20 12:59:32;;;;;;;0.00;0.00;;;;;;;;;;4997469;28;20110;-86
2024/01/20 13:01:57;;;;;;;0.00;0.00;;;;;;;;;;5015150;28;20418;-88
2024/01/20 13:04:23;;;;;;;0.00;0.00;;;;;;;;;;4997604;28;20092;-87
2024/01/20 13:06:49;;;;;;;0.00;0.00;;;;;;;;;;5013410;28;20034;-87
2024/01/20 13:09:15;;;;;;;0.00;0.00;;;;;;;;;;4997380;28;20037;-88
2024/01/20 13:11:41;;;;;;;0.00;0.00;;;;;;;;;;5013794;28;20041;-88
2024/01/20 13:14:07;;;;;;;0.00;0.00;;;;;;;;;;4996956;28;20033;-88
2024/01/20 13:16:32;;;;;;;0.00;0.00;;;;;;;;;;4980816;28;20348;-87
2024/01/20 13:18:58;;;;;;;0.00;0.00;;;;;;;;;;5013408;28;20136;-87
2024/01/20 13:21:24;;;;;;;0.00;0.00;;;;;;;;;;4996807;28;20034;-87
2024/01/20 13:23:49;;;;;;;0.00;0.00;;;;;;;;;;5014367;28;20030;-86
2024/01/20 13:26:15;;;;;;;0.00;0.00;;;;;;;;;;4980737;28;20049;-87
2024/01/20 13:28:41;;;;;;;0.00;0.00;;;;;;;;;;4964359;28;20386;-87
2024/01/20 13:31:06;;;;;;;0.00;0.00;;;;;;;;;;5014431;28;20613;-86
2024/01/20 13:33:32;;;;;;;0.00;0.00;;;;;;;;;;4997108;28;20041;-87
2024/01/20 13:35:57;;;;;;;0.00;0.00;;;;;;;;;;4997040;28;20148;-87
2024/01/20 13:38:23;;;;;;;0.00;0.00;;;;;;;;;;4980866;28;20034;-86
2024/01/20 13:40:49;;;;;;;0.00;0.00;;;;;;;;;;5013869;28;20033;-86
2024/01/20 13:43:15;;;;;;;0.00;0.00;;;;;;;;;;4980896;28;20045;-87
2024/01/20 13:45:40;;;;;;;0.00;0.00;;;;;;;;;;4996797;28;20072;-87
2024/01/20 13:48:06;;;;;;;0.00;0.00;;;;;;;;;;4964399;28;20137;-86
2024/01/20 13:50:32;;;;;;;0.00;0.00;;;;;;;;;;5013430;28;20056;-85
2024/01/20 13:52:57;;;;;;;0.00;0.00;;;;;;;;;;5033471;28;20387;-87
2024/01/20 13:55:23;;;;;;;0.00;0.00;;;;;;;;;;4999440;28;20107;-87
2024/01/20 13:57:48;;;;;;;0.00;0.00;;;;;;;;;;5023102;28;20446;-86
2024/01/20 14:00:14;;;;;;;0.00;0.00;;;;;;;;;;5019006;28;20033;-88
2024/01/20 14:02:40;;;;;;;0.00;0.00;;;;;;;;;;5035357;28;20082;-88
2024/01/20 14:05:06;;;;;;;0.00;0.00;;;;;;;;;;5019406;28;20033;-88
2024/01/20 14:07:31;;;;;;;0.00;0.00;;;;;;;;;;5002728;28;20374;-85
2024/01/20 14:09:57;;;;;;;0.00;0.00;;;;;;;;;;5018529;28;20032;-86
2024/01/20 14:12:22;;;;;;;0.00;0.00;;;;;;;;;;5035288;28;20029;-87
2024/01/20 14:14:48;;;;;;;0.00;0.00;;;;;;;;;;5019073;28;20418;-88
2024/01/20 14:17:13;;;;;;;0.00;0.00;;;;;;;;;;4999089;28;20037;-85
2024/01/20 14:19:39;;;;;;;0.00;0.00;;;;;;;;;;4983145;28;20055;-87
2024/01/20 14:22:05;;;;;;;0.00;0.00;;;;;;;;;;4999000;28;20057;-86
2024/01/20 14:24:30;;;;;;;0.00;0.00;;;;;;;;;;5032729;28;20405;-88
2024/01/20 14:26:56;;;;;;;0.00;0.00;;;;;;;;;;5001055;28;20072;-86
2024/01/20 14:29:21;;;;;;;0.00;0.00;;;;;;;;;;5002272;28;20125;-88
2024/01/20 14:31:48;;;;;;;0.00;0.00;;;;;;;;;;5018104;28;20036;-86
2024/01/20 14:34:13;;;;;;;0.00;0.00;;;;;;;;;;5019426;28;20051;-85
2024/01/20 14:36:41;;;;;;;0.00;0.00;;;;;;;;;;5018197;28;20108;-87